sensor_id;sensor_type;location;lat;lon;timestamp;P1;durP1;ratioP1;P2;durP2;ratioP2
2480;SDS011;57396;48.742;9.128;2023-05-29T00:00:32;13.77;;;7.30;;
2480;SDS011;57396;48.742;9.128;2023-05-29T00:02:58;16.77;;;6.40;;
2480;SDS011;57396;48.742;9.128;2023-05-29T00:05:24;8.83;;;7.10;;
2480;SDS011;57396;48.742;9.128;2023-05-29T00:07:49;12.87;;;6.83;;
2480;SDS011;57396;48.742;9.128;2023-05-29T00:10:15;10.87;;;6.50;;
2480;SDS011;57396;48.742;9.128;2023-05-29T00:12:41;14.40;;;7.00;;
2480;SDS011;57396;48.742;9.128;2023-05-29T00:15:07;11.73;;;6.50;;
2480;SDS011;57396;48.742;9.128;2023-05-29T00:17:34;14.43;;;7.17;;
2480;SDS011;57396;48.742;9.128;2023-05-29T00:20:00;11.93;;;7.47;;
2480;SDS011;57396;48.742;9.128;2023-05-29T00:22:27;11.10;;;6.73;;
2480;SDS011;57396;48.742;9.128;2023-05-29T00:24:53;11.60;;;6.60;;
2480;SDS011;57396;48.742;9.128;2023-05-29T00:27:19;9.80;;;6.53;;
2480;SDS011;57396;48.742;9.128;2023-05-29T00:29:45;10.30;;;6.23;;
2480;SDS011;57396;48.742;9.128;2023-05-29T00:32:10;10.30;;;6.20;;
2480;SDS011;57396;48.742;9.128;2023-05-29T00:34:36;10.37;;;6.30;;
2480;SDS011;57396;48.742;9.128;2023-05-29T00:37:01;8.83;;;5.93;;
2480;SDS011;57396;48.742;9.128;2023-05-29T00:39:28;8.17;;;5.80;;
2480;SDS011;57396;48.742;9.128;2023-05-29T00:41:53;11.97;;;6.80;;
2480;SDS011;57396;48.742;9.128;2023-05-29T00:44:19;10.90;;;6.00;;
2480;SDS011;57396;48.742;9.128;2023-05-29T00:46:51;8.10;;;6.00;;
2480;SDS011;57396;48.742;9.128;2023-05-29T00:49:18;9.27;;;5.87;;
2480;SDS011;57396;48.742;9.128;2023-05-29T00:51:44;8.80;;;5.93;;
2480;SDS011;57396;48.742;9.128;2023-05-29T00:54:11;10.43;;;6.60;;
2480;SDS011;57396;48.742;9.128;2023-05-29T00:56:41;11.43;;;5.93;;
2480;SDS011;57396;48.742;9.128;2023-05-29T00:59:10;13.50;;;6.10;;
2480;SDS011;57396;48.742;9.128;2023-05-29T01:01:36;9.63;;;6.67;;
2480;SDS011;57396;48.742;9.128;2023-05-29T01:04:02;12.33;;;6.23;;
2480;SDS011;57396;48.742;9.128;2023-05-29T01:06:28;10.30;;;6.37;;
2480;SDS011;57396;48.742;9.128;2023-05-29T01:08:54;10.13;;;6.00;;
2480;SDS011;57396;48.742;9.128;2023-05-29T01:11:24;10.80;;;6.20;;
2480;SDS011;57396;48.742;9.128;2023-05-29T01:14:04;8.27;;;6.63;;
2480;SDS011;57396;48.742;9.128;2023-05-29T01:16:35;11.30;;;6.30;;
2480;SDS011;57396;48.742;9.128;2023-05-29T01:27:05;9.07;;;6.47;;
2480;SDS011;57396;48.742;9.128;2023-05-29T01:29:35;10.30;;;6.30;;
2480;SDS011;57396;48.742;9.128;2023-05-29T01:32:03;7.60;;;5.60;;
2480;SDS011;57396;48.742;9.128;2023-05-29T01:34:29;9.20;;;5.70;;
2480;SDS011;57396;48.742;9.128;2023-05-29T01:36:55;8.90;;;5.57;;
2480;SDS011;57396;48.742;9.128;2023-05-29T01:39:21;8.70;;;5.63;;
2480;SDS011;57396;48.742;9.128;2023-05-29T01:41:47;10.73;;;5.20;;
2480;SDS011;57396;48.742;9.128;2023-05-29T01:44:12;9.63;;;4.97;;
2480;SDS011;57396;48.742;9.128;2023-05-29T01:46:39;12.37;;;5.53;;
2480;SDS011;57396;48.742;9.128;2023-05-29T01:49:06;9.20;;;5.10;;
2480;SDS011;57396;48.742;9.128;2023-05-29T01:51:32;10.53;;;5.90;;
2480;SDS011;57396;48.742;9.128;2023-05-29T01:53:58;10.60;;;5.67;;
2480;SDS011;57396;48.742;9.128;2023-05-29T01:56:27;7.90;;;5.90;;
2480;SDS011;57396;48.742;9.128;2023-05-29T01:58:54;8.67;;;5.40;;
2480;SDS011;57396;48.742;9.128;2023-05-29T02:01:23;14.00;;;6.33;;
2480;SDS011;57396;48.742;9.128;2023-05-29T02:03:49;11.40;;;6.47;;
2480;SDS011;57396;48.742;9.128;2023-05-29T02:06:16;11.07;;;5.70;;
2480;SDS011;57396;48.742;9.128;2023-05-29T02:08:42;19.43;;;5.90;;
2480;SDS011;57396;48.742;9.128;2023-05-29T02:11:07;8.87;;;5.67;;
2480;SDS011;57396;48.742;9.128;2023-05-29T02:13:32;8.30;;;5.40;;
2480;SDS011;57396;48.742;9.128;2023-05-29T02:15:58;8.93;;;5.40;;
2480;SDS011;57396;48.742;9.128;2023-05-29T02:18:23;8.83;;;5.70;;
2480;SDS011;57396;48.742;9.128;2023-05-29T02:20:49;11.20;;;6.17;;
2480;SDS011;57396;48.742;9.128;2023-05-29T02:23:14;10.10;;;6.13;;
2480;SDS011;57396;48.742;9.128;2023-05-29T02:25:40;12.87;;;5.93;;
2480;SDS011;57396;48.742;9.128;2023-05-29T02:28:06;10.13;;;6.00;;
2480;SDS011;57396;48.742;9.128;2023-05-29T02:30:32;8.13;;;5.40;;
2480;SDS011;57396;48.742;9.128;2023-05-29T02:32:58;7.50;;;5.23;;
2480;SDS011;57396;48.742;9.128;2023-05-29T02:35:23;8.00;;;5.50;;
2480;SDS011;57396;48.742;9.128;2023-05-29T02:37:49;8.67;;;5.60;;
2480;SDS011;57396;48.742;9.128;2023-05-29T02:40:15;9.93;;;5.67;;
2480;SDS011;57396;48.742;9.128;2023-05-29T02:42:41;8.67;;;5.60;;
2480;SDS011;57396;48.742;9.128;2023-05-29T02:45:07;8.77;;;6.27;;
2480;SDS011;57396;48.742;9.128;2023-05-29T02:47:32;9.40;;;5.23;;
2480;SDS011;57396;48.742;9.128;2023-05-29T02:49:58;9.30;;;6.40;;
2480;SDS011;57396;48.742;9.128;2023-05-29T02:52:23;8.73;;;5.90;;
2480;SDS011;57396;48.742;9.128;2023-05-29T02:54:49;10.03;;;5.97;;
2480;SDS011;57396;48.742;9.128;2023-05-29T02:57:14;11.13;;;5.20;;
2480;SDS011;57396;48.742;9.128;2023-05-29T02:59:40;8.23;;;5.60;;
2480;SDS011;57396;48.742;9.128;2023-05-29T03:02:06;12.20;;;5.40;;
2480;SDS011;57396;48.742;9.128;2023-05-29T03:04:31;8.17;;;5.43;;
2480;SDS011;57396;48.742;9.128;2023-05-29T03:06:57;8.33;;;4.90;;
2480;SDS011;57396;48.742;9.128;2023-05-29T03:09:22;9.27;;;5.70;;
2480;SDS011;57396;48.742;9.128;2023-05-29T03:11:48;9.53;;;5.40;;
2480;SDS011;57396;48.742;9.128;2023-05-29T03:14:15;6.10;;;5.50;;
2480;SDS011;57396;48.742;9.128;2023-05-29T03:16:41;9.13;;;5.40;;
2480;SDS011;57396;48.742;9.128;2023-05-29T03:19:08;11.27;;;5.53;;
2480;SDS011;57396;48.742;9.128;2023-05-29T03:21:33;9.20;;;5.53;;
2480;SDS011;57396;48.742;9.128;2023-05-29T03:24:01;9.07;;;5.60;;
2480;SDS011;57396;48.742;9.128;2023-05-29T03:26:27;10.10;;;5.93;;
2480;SDS011;57396;48.742;9.128;2023-05-29T03:28:53;7.53;;;5.20;;
2480;SDS011;57396;48.742;9.128;2023-05-29T03:31:19;9.00;;;6.03;;
2480;SDS011;57396;48.742;9.128;2023-05-29T03:33:45;7.70;;;5.53;;
2480;SDS011;57396;48.742;9.128;2023-05-29T03:36:10;8.43;;;6.07;;
2480;SDS011;57396;48.742;9.128;2023-05-29T03:38:36;7.77;;;4.90;;
2480;SDS011;57396;48.742;9.128;2023-05-29T03:41:02;9.80;;;5.50;;
2480;SDS011;57396;48.742;9.128;2023-05-29T03:43:27;12.30;;;5.63;;
2480;SDS011;57396;48.742;9.128;2023-05-29T03:45:53;6.93;;;5.30;;
2480;SDS011;57396;48.742;9.128;2023-05-29T03:48:18;9.43;;;5.27;;
2480;SDS011;57396;48.742;9.128;2023-05-29T03:50:44;7.50;;;5.33;;
2480;SDS011;57396;48.742;9.128;2023-05-29T03:53:10;11.57;;;5.00;;
2480;SDS011;57396;48.742;9.128;2023-05-29T03:55:36;6.30;;;5.00;;
2480;SDS011;57396;48.742;9.128;2023-05-29T03:58:01;8.73;;;5.13;;
2480;SDS011;57396;48.742;9.128;2023-05-29T04:00:27;11.20;;;5.53;;
2480;SDS011;57396;48.742;9.128;2023-05-29T04:02:52;8.23;;;5.17;;
2480;SDS011;57396;48.742;9.128;2023-05-29T04:05:19;8.07;;;5.20;;
2480;SDS011;57396;48.742;9.128;2023-05-29T04:07:45;9.43;;;5.20;;
2480;SDS011;57396;48.742;9.128;2023-05-29T04:10:11;9.17;;;5.70;;
2480;SDS011;57396;48.742;9.128;2023-05-29T04:12:36;8.17;;;5.70;;
2480;SDS011;57396;48.742;9.128;2023-05-29T04:15:02;9.20;;;5.90;;
2480;SDS011;57396;48.742;9.128;2023-05-29T04:17:28;9.80;;;5.60;;
2480;SDS011;57396;48.742;9.128;2023-05-29T04:19:53;16.17;;;6.47;;
2480;SDS011;57396;48.742;9.128;2023-05-29T04:22:18;7.60;;;5.27;;
2480;SDS011;57396;48.742;9.128;2023-05-29T04:24:46;8.13;;;5.70;;
2480;SDS011;57396;48.742;9.128;2023-05-29T04:27:11;10.10;;;5.70;;
2480;SDS011;57396;48.742;9.128;2023-05-29T04:29:41;7.70;;;5.40;;
2480;SDS011;57396;48.742;9.128;2023-05-29T04:32:08;7.20;;;5.30;;
2480;SDS011;57396;48.742;9.128;2023-05-29T04:34:35;8.90;;;5.37;;
2480;SDS011;57396;48.742;9.128;2023-05-29T04:37:01;10.30;;;5.63;;
2480;SDS011;57396;48.742;9.128;2023-05-29T04:39:28;8.13;;;5.53;;
2480;SDS011;57396;48.742;9.128;2023-05-29T04:41:53;10.60;;;5.90;;
2480;SDS011;57396;48.742;9.128;2023-05-29T04:44:19;7.53;;;5.57;;
2480;SDS011;57396;48.742;9.128;2023-05-29T04:46:44;7.40;;;5.17;;
2480;SDS011;57396;48.742;9.128;2023-05-29T04:49:12;7.67;;;5.17;;
2480;SDS011;57396;48.742;9.128;2023-05-29T04:51:38;8.30;;;5.30;;
2480;SDS011;57396;48.742;9.128;2023-05-29T04:54:06;11.93;;;6.00;;
2480;SDS011;57396;48.742;9.128;2023-05-29T04:56:32;10.63;;;5.40;;
2480;SDS011;57396;48.742;9.128;2023-05-29T04:58:57;8.03;;;5.77;;
2480;SDS011;57396;48.742;9.128;2023-05-29T05:01:23;6.50;;;5.70;;
2480;SDS011;57396;48.742;9.128;2023-05-29T05:03:49;9.10;;;5.27;;
2480;SDS011;57396;48.742;9.128;2023-05-29T05:06:15;8.93;;;5.50;;
2480;SDS011;57396;48.742;9.128;2023-05-29T05:08:42;8.57;;;5.40;;
2480;SDS011;57396;48.742;9.128;2023-05-29T05:11:07;9.33;;;6.20;;
2480;SDS011;57396;48.742;9.128;2023-05-29T05:13:33;9.50;;;6.30;;
2480;SDS011;57396;48.742;9.128;2023-05-29T05:15:58;6.57;;;4.97;;
2480;SDS011;57396;48.742;9.128;2023-05-29T05:18:24;17.40;;;5.47;;
2480;SDS011;57396;48.742;9.128;2023-05-29T05:20:49;10.33;;;5.50;;
2480;SDS011;57396;48.742;9.128;2023-05-29T05:23:15;10.13;;;5.37;;
2480;SDS011;57396;48.742;9.128;2023-05-29T05:25:40;7.63;;;5.50;;
2480;SDS011;57396;48.742;9.128;2023-05-29T05:28:08;13.53;;;5.30;;
2480;SDS011;57396;48.742;9.128;2023-05-29T05:30:33;7.57;;;5.70;;
2480;SDS011;57396;48.742;9.128;2023-05-29T05:32:59;8.40;;;5.20;;
2480;SDS011;57396;48.742;9.128;2023-05-29T05:35:24;9.40;;;4.90;;
2480;SDS011;57396;48.742;9.128;2023-05-29T05:37:50;7.23;;;5.27;;
2480;SDS011;57396;48.742;9.128;2023-05-29T05:40:15;7.37;;;5.40;;
2480;SDS011;57396;48.742;9.128;2023-05-29T05:42:41;9.10;;;5.37;;
2480;SDS011;57396;48.742;9.128;2023-05-29T05:45:07;7.70;;;5.40;;
2480;SDS011;57396;48.742;9.128;2023-05-29T05:47:33;7.93;;;5.60;;
2480;SDS011;57396;48.742;9.128;2023-05-29T05:49:58;10.20;;;5.03;;
2480;SDS011;57396;48.742;9.128;2023-05-29T05:52:24;9.23;;;5.03;;
2480;SDS011;57396;48.742;9.128;2023-05-29T05:54:51;13.37;;;5.33;;
2480;SDS011;57396;48.742;9.128;2023-05-29T05:57:16;8.93;;;5.10;;
2480;SDS011;57396;48.742;9.128;2023-05-29T05:59:42;8.40;;;5.30;;
2480;SDS011;57396;48.742;9.128;2023-05-29T06:02:07;9.40;;;5.10;;
2480;SDS011;57396;48.742;9.128;2023-05-29T06:04:33;8.60;;;5.33;;
2480;SDS011;57396;48.742;9.128;2023-05-29T06:06:58;10.73;;;5.43;;
2480;SDS011;57396;48.742;9.128;2023-05-29T06:09:24;8.83;;;5.30;;
2480;SDS011;57396;48.742;9.128;2023-05-29T06:11:50;9.23;;;5.37;;
2480;SDS011;57396;48.742;9.128;2023-05-29T06:14:16;8.23;;;4.77;;
2480;SDS011;57396;48.742;9.128;2023-05-29T06:16:41;7.60;;;5.30;;
2480;SDS011;57396;48.742;9.128;2023-05-29T06:19:07;9.00;;;5.00;;
2480;SDS011;57396;48.742;9.128;2023-05-29T06:21:33;8.73;;;5.17;;
2480;SDS011;57396;48.742;9.128;2023-05-29T06:23:58;10.70;;;5.43;;
2480;SDS011;57396;48.742;9.128;2023-05-29T06:26:24;10.30;;;5.20;;
2480;SDS011;57396;48.742;9.128;2023-05-29T06:28:52;6.83;;;5.10;;
2480;SDS011;57396;48.742;9.128;2023-05-29T06:31:18;9.80;;;5.13;;
2480;SDS011;57396;48.742;9.128;2023-05-29T06:33:44;9.20;;;5.47;;
2480;SDS011;57396;48.742;9.128;2023-05-29T06:36:09;8.60;;;4.97;;
2480;SDS011;57396;48.742;9.128;2023-05-29T06:38:35;10.80;;;5.23;;
2480;SDS011;57396;48.742;9.128;2023-05-29T06:41:01;12.67;;;5.83;;
2480;SDS011;57396;48.742;9.128;2023-05-29T06:43:27;6.67;;;5.13;;
2480;SDS011;57396;48.742;9.128;2023-05-29T06:45:53;7.10;;;4.80;;
2480;SDS011;57396;48.742;9.128;2023-05-29T06:48:18;10.13;;;5.00;;
2480;SDS011;57396;48.742;9.128;2023-05-29T06:50:44;9.00;;;5.90;;
2480;SDS011;57396;48.742;9.128;2023-05-29T06:53:09;11.20;;;5.97;;
2480;SDS011;57396;48.742;9.128;2023-05-29T06:55:35;8.73;;;4.90;;
2480;SDS011;57396;48.742;9.128;2023-05-29T06:58:00;8.33;;;4.53;;
2480;SDS011;57396;48.742;9.128;2023-05-29T07:00:26;9.43;;;5.43;;
2480;SDS011;57396;48.742;9.128;2023-05-29T07:02:52;8.27;;;4.97;;
2480;SDS011;57396;48.742;9.128;2023-05-29T07:05:17;7.20;;;4.83;;
2480;SDS011;57396;48.742;9.128;2023-05-29T07:07:43;8.97;;;5.10;;
2480;SDS011;57396;48.742;9.128;2023-05-29T07:10:08;6.80;;;4.67;;
2480;SDS011;57396;48.742;9.128;2023-05-29T07:12:34;12.13;;;5.00;;
2480;SDS011;57396;48.742;9.128;2023-05-29T07:15:00;7.47;;;4.90;;
2480;SDS011;57396;48.742;9.128;2023-05-29T07:17:25;5.43;;;4.47;;
2480;SDS011;57396;48.742;9.128;2023-05-29T07:19:50;9.13;;;5.37;;
2480;SDS011;57396;48.742;9.128;2023-05-29T07:22:16;7.53;;;4.90;;
2480;SDS011;57396;48.742;9.128;2023-05-29T07:24:41;8.10;;;5.20;;
2480;SDS011;57396;48.742;9.128;2023-05-29T07:27:07;11.10;;;5.60;;
2480;SDS011;57396;48.742;9.128;2023-05-29T07:29:32;5.50;;;4.30;;
2480;SDS011;57396;48.742;9.128;2023-05-29T07:31:58;9.03;;;4.70;;
2480;SDS011;57396;48.742;9.128;2023-05-29T07:34:23;8.33;;;5.17;;
2480;SDS011;57396;48.742;9.128;2023-05-29T07:37:02;7.23;;;4.83;;
2480;SDS011;57396;48.742;9.128;2023-05-29T07:39:29;7.43;;;5.07;;
2480;SDS011;57396;48.742;9.128;2023-05-29T07:41:55;11.80;;;5.20;;
2480;SDS011;57396;48.742;9.128;2023-05-29T07:44:21;7.10;;;5.50;;
2480;SDS011;57396;48.742;9.128;2023-05-29T07:46:46;11.17;;;5.20;;
2480;SDS011;57396;48.742;9.128;2023-05-29T07:49:12;9.90;;;5.07;;
2480;SDS011;57396;48.742;9.128;2023-05-29T07:51:37;7.07;;;4.80;;
2480;SDS011;57396;48.742;9.128;2023-05-29T07:54:03;6.83;;;5.10;;
2480;SDS011;57396;48.742;9.128;2023-05-29T07:56:28;6.90;;;4.17;;
2480;SDS011;57396;48.742;9.128;2023-05-29T07:58:54;6.60;;;4.90;;
2480;SDS011;57396;48.742;9.128;2023-05-29T08:01:21;7.70;;;4.60;;
2480;SDS011;57396;48.742;9.128;2023-05-29T08:03:47;7.30;;;4.70;;
2480;SDS011;57396;48.742;9.128;2023-05-29T08:06:13;6.53;;;4.60;;
2480;SDS011;57396;48.742;9.128;2023-05-29T08:08:38;6.43;;;4.60;;
2480;SDS011;57396;48.742;9.128;2023-05-29T08:11:04;7.97;;;5.10;;
2480;SDS011;57396;48.742;9.128;2023-05-29T08:13:30;8.40;;;4.97;;
2480;SDS011;57396;48.742;9.128;2023-05-29T08:15:56;5.47;;;4.43;;
2480;SDS011;57396;48.742;9.128;2023-05-29T08:18:24;9.03;;;4.60;;
2480;SDS011;57396;48.742;9.128;2023-05-29T08:20:50;7.53;;;4.70;;
2480;SDS011;57396;48.742;9.128;2023-05-29T08:23:16;6.53;;;4.73;;
2480;SDS011;57396;48.742;9.128;2023-05-29T08:25:42;9.60;;;5.13;;
2480;SDS011;57396;48.742;9.128;2023-05-29T08:28:07;7.17;;;4.70;;
2480;SDS011;57396;48.742;9.128;2023-05-29T08:30:33;9.97;;;5.17;;
2480;SDS011;57396;48.742;9.128;2023-05-29T08:32:58;7.43;;;4.80;;
2480;SDS011;57396;48.742;9.128;2023-05-29T08:35:23;8.43;;;4.33;;
2480;SDS011;57396;48.742;9.128;2023-05-29T08:37:49;7.80;;;4.60;;
2480;SDS011;57396;48.742;9.128;2023-05-29T08:40:14;9.50;;;4.97;;
2480;SDS011;57396;48.742;9.128;2023-05-29T08:42:43;8.57;;;4.73;;
2480;SDS011;57396;48.742;9.128;2023-05-29T08:45:13;6.23;;;5.00;;
2480;SDS011;57396;48.742;9.128;2023-05-29T08:47:39;6.07;;;4.87;;
2480;SDS011;57396;48.742;9.128;2023-05-29T08:50:05;5.17;;;4.53;;
2480;SDS011;57396;48.742;9.128;2023-05-29T08:52:33;10.07;;;4.80;;
2480;SDS011;57396;48.742;9.128;2023-05-29T08:55:02;8.93;;;4.70;;
2480;SDS011;57396;48.742;9.128;2023-05-29T08:57:29;4.83;;;4.30;;
2480;SDS011;57396;48.742;9.128;2023-05-29T08:59:55;7.00;;;4.80;;
2480;SDS011;57396;48.742;9.128;2023-05-29T09:02:21;10.87;;;4.50;;
2480;SDS011;57396;48.742;9.128;2023-05-29T09:04:46;8.83;;;4.50;;
2480;SDS011;57396;48.742;9.128;2023-05-29T09:07:17;8.37;;;5.00;;
2480;SDS011;57396;48.742;9.128;2023-05-29T09:09:47;8.50;;;5.10;;
2480;SDS011;57396;48.742;9.128;2023-05-29T09:12:13;6.83;;;5.13;;
2480;SDS011;57396;48.742;9.128;2023-05-29T09:14:42;7.00;;;5.00;;
2480;SDS011;57396;48.742;9.128;2023-05-29T09:17:09;6.23;;;5.00;;
2480;SDS011;57396;48.742;9.128;2023-05-29T09:19:36;5.60;;;4.30;;
2480;SDS011;57396;48.742;9.128;2023-05-29T09:22:03;6.10;;;4.70;;
2480;SDS011;57396;48.742;9.128;2023-05-29T09:24:35;10.43;;;5.23;;
2480;SDS011;57396;48.742;9.128;2023-05-29T09:27:02;7.20;;;5.10;;
2480;SDS011;57396;48.742;9.128;2023-05-29T09:29:42;8.47;;;4.90;;
2480;SDS011;57396;48.742;9.128;2023-05-29T09:32:15;7.53;;;4.70;;
2480;SDS011;57396;48.742;9.128;2023-05-29T09:34:42;7.47;;;5.07;;
2480;SDS011;57396;48.742;9.128;2023-05-29T09:37:08;7.40;;;5.00;;
2480;SDS011;57396;48.742;9.128;2023-05-29T09:39:55;18.43;;;5.90;;
2480;SDS011;57396;48.742;9.128;2023-05-29T09:42:20;6.50;;;4.97;;
2480;SDS011;57396;48.742;9.128;2023-05-29T09:44:50;5.70;;;4.80;;
2480;SDS011;57396;48.742;9.128;2023-05-29T09:47:18;7.00;;;4.80;;
2480;SDS011;57396;48.742;9.128;2023-05-29T09:49:44;13.77;;;5.10;;
2480;SDS011;57396;48.742;9.128;2023-05-29T09:52:11;7.50;;;4.97;;
2480;SDS011;57396;48.742;9.128;2023-05-29T09:54:44;6.37;;;4.80;;
2480;SDS011;57396;48.742;9.128;2023-05-29T09:57:13;6.00;;;4.43;;
2480;SDS011;57396;48.742;9.128;2023-05-29T09:59:40;7.13;;;4.87;;
2480;SDS011;57396;48.742;9.128;2023-05-29T10:02:09;7.83;;;4.73;;
2480;SDS011;57396;48.742;9.128;2023-05-29T10:04:37;6.80;;;5.13;;
2480;SDS011;57396;48.742;9.128;2023-05-29T10:07:17;9.30;;;4.20;;
2480;SDS011;57396;48.742;9.128;2023-05-29T10:09:50;8.23;;;4.53;;
2480;SDS011;57396;48.742;9.128;2023-05-29T10:12:19;4.80;;;4.10;;
2480;SDS011;57396;48.742;9.128;2023-05-29T10:14:46;6.30;;;4.40;;
2480;SDS011;57396;48.742;9.128;2023-05-29T10:17:14;6.30;;;4.47;;
2480;SDS011;57396;48.742;9.128;2023-05-29T10:19:41;7.10;;;4.53;;
2480;SDS011;57396;48.742;9.128;2023-05-29T10:22:07;7.37;;;4.30;;
2480;SDS011;57396;48.742;9.128;2023-05-29T10:24:33;8.30;;;4.50;;
2480;SDS011;57396;48.742;9.128;2023-05-29T10:27:02;6.50;;;4.23;;
2480;SDS011;57396;48.742;9.128;2023-05-29T10:29:31;6.50;;;4.60;;
2480;SDS011;57396;48.742;9.128;2023-05-29T10:35:18;4.27;;;3.87;;
2480;SDS011;57396;48.742;9.128;2023-05-29T10:40:22;5.27;;;3.83;;
2480;SDS011;57396;48.742;9.128;2023-05-29T10:42:51;8.13;;;4.23;;
2480;SDS011;57396;48.742;9.128;2023-05-29T10:47:54;5.60;;;3.80;;
2480;SDS011;57396;48.742;9.128;2023-05-29T10:50:38;8.00;;;3.83;;
2480;SDS011;57396;48.742;9.128;2023-05-29T10:53:06;5.17;;;4.00;;
2480;SDS011;57396;48.742;9.128;2023-05-29T10:55:38;6.17;;;3.70;;
2480;SDS011;57396;48.742;9.128;2023-05-29T10:58:05;5.20;;;3.57;;
2480;SDS011;57396;48.742;9.128;2023-05-29T11:00:31;6.23;;;3.73;;
2480;SDS011;57396;48.742;9.128;2023-05-29T11:03:01;11.10;;;3.60;;
2480;SDS011;57396;48.742;9.128;2023-05-29T11:05:27;13.03;;;3.83;;
2480;SDS011;57396;48.742;9.128;2023-05-29T11:07:57;4.60;;;3.53;;
2480;SDS011;57396;48.742;9.128;2023-05-29T11:13:23;9.43;;;3.37;;
2480;SDS011;57396;48.742;9.128;2023-05-29T11:18:30;5.30;;;3.67;;
2480;SDS011;57396;48.742;9.128;2023-05-29T11:20:57;5.77;;;3.53;;
2480;SDS011;57396;48.742;9.128;2023-05-29T11:23:23;5.30;;;3.87;;
2480;SDS011;57396;48.742;9.128;2023-05-29T11:25:50;6.00;;;3.57;;
2480;SDS011;57396;48.742;9.128;2023-05-29T11:28:16;10.40;;;4.00;;
2480;SDS011;57396;48.742;9.128;2023-05-29T11:30:47;7.23;;;3.80;;
2480;SDS011;57396;48.742;9.128;2023-05-29T11:33:19;4.93;;;3.67;;
2480;SDS011;57396;48.742;9.128;2023-05-29T11:35:50;7.00;;;4.00;;
2480;SDS011;57396;48.742;9.128;2023-05-29T11:38:20;5.90;;;3.53;;
2480;SDS011;57396;48.742;9.128;2023-05-29T11:40:45;7.00;;;3.23;;
2480;SDS011;57396;48.742;9.128;2023-05-29T11:43:12;4.80;;;3.40;;
2480;SDS011;57396;48.742;9.128;2023-05-29T11:45:37;5.80;;;3.80;;
2480;SDS011;57396;48.742;9.128;2023-05-29T11:48:03;7.53;;;3.73;;
2480;SDS011;57396;48.742;9.128;2023-05-29T11:50:32;5.20;;;3.90;;
2480;SDS011;57396;48.742;9.128;2023-05-29T11:52:59;10.27;;;4.50;;
2480;SDS011;57396;48.742;9.128;2023-05-29T11:55:25;3.73;;;3.30;;
2480;SDS011;57396;48.742;9.128;2023-05-29T11:57:52;4.67;;;3.70;;
2480;SDS011;57396;48.742;9.128;2023-05-29T12:00:24;5.93;;;3.47;;
2480;SDS011;57396;48.742;9.128;2023-05-29T12:02:51;4.17;;;3.57;;
2480;SDS011;57396;48.742;9.128;2023-05-29T12:05:17;7.77;;;3.50;;
2480;SDS011;57396;48.742;9.128;2023-05-29T12:10:15;9.40;;;4.03;;
2480;SDS011;57396;48.742;9.128;2023-05-29T12:12:42;6.23;;;3.50;;
2480;SDS011;57396;48.742;9.128;2023-05-29T12:15:08;4.30;;;3.43;;
2480;SDS011;57396;48.742;9.128;2023-05-29T12:17:34;5.63;;;3.17;;
2480;SDS011;57396;48.742;9.128;2023-05-29T12:20:00;7.53;;;3.33;;
2480;SDS011;57396;48.742;9.128;2023-05-29T12:22:38;7.67;;;3.93;;
2480;SDS011;57396;48.742;9.128;2023-05-29T12:25:09;4.33;;;3.77;;
2480;SDS011;57396;48.742;9.128;2023-05-29T12:27:39;7.00;;;3.47;;
2480;SDS011;57396;48.742;9.128;2023-05-29T12:30:11;5.90;;;2.90;;
2480;SDS011;57396;48.742;9.128;2023-05-29T12:32:40;6.07;;;3.00;;
2480;SDS011;57396;48.742;9.128;2023-05-29T12:35:11;4.20;;;3.00;;
2480;SDS011;57396;48.742;9.128;2023-05-29T12:37:46;4.20;;;3.13;;
2480;SDS011;57396;48.742;9.128;2023-05-29T12:40:15;4.00;;;3.10;;
2480;SDS011;57396;48.742;9.128;2023-05-29T12:42:41;6.70;;;3.60;;
2480;SDS011;57396;48.742;9.128;2023-05-29T12:45:07;5.10;;;3.90;;
2480;SDS011;57396;48.742;9.128;2023-05-29T12:47:33;13.50;;;3.27;;
2480;SDS011;57396;48.742;9.128;2023-05-29T12:50:00;5.93;;;3.67;;
2480;SDS011;57396;48.742;9.128;2023-05-29T12:52:29;4.90;;;3.10;;
2480;SDS011;57396;48.742;9.128;2023-05-29T12:54:55;4.93;;;3.20;;
2480;SDS011;57396;48.742;9.128;2023-05-29T12:57:20;5.20;;;3.50;;
2480;SDS011;57396;48.742;9.128;2023-05-29T12:59:47;5.77;;;2.90;;
2480;SDS011;57396;48.742;9.128;2023-05-29T13:02:12;3.43;;;3.13;;
2480;SDS011;57396;48.742;9.128;2023-05-29T13:04:38;6.03;;;3.13;;
2480;SDS011;57396;48.742;9.128;2023-05-29T13:07:04;3.50;;;3.20;;
2480;SDS011;57396;48.742;9.128;2023-05-29T13:09:30;4.03;;;3.20;;
2480;SDS011;57396;48.742;9.128;2023-05-29T13:11:56;4.10;;;3.20;;
2480;SDS011;57396;48.742;9.128;2023-05-29T13:14:21;5.53;;;3.20;;
2480;SDS011;57396;48.742;9.128;2023-05-29T13:16:46;4.47;;;3.40;;
2480;SDS011;57396;48.742;9.128;2023-05-29T13:19:13;3.87;;;3.03;;
2480;SDS011;57396;48.742;9.128;2023-05-29T13:21:38;3.23;;;2.90;;
2480;SDS011;57396;48.742;9.128;2023-05-29T13:24:05;5.37;;;3.23;;
2480;SDS011;57396;48.742;9.128;2023-05-29T13:26:30;4.67;;;3.03;;
2480;SDS011;57396;48.742;9.128;2023-05-29T13:28:56;4.40;;;3.30;;
2480;SDS011;57396;48.742;9.128;2023-05-29T13:31:21;3.57;;;3.07;;
2480;SDS011;57396;48.742;9.128;2023-05-29T13:33:47;4.50;;;3.20;;
2480;SDS011;57396;48.742;9.128;2023-05-29T13:36:12;6.00;;;3.53;;
2480;SDS011;57396;48.742;9.128;2023-05-29T13:38:38;7.07;;;3.03;;
2480;SDS011;57396;48.742;9.128;2023-05-29T13:41:03;4.97;;;3.30;;
2480;SDS011;57396;48.742;9.128;2023-05-29T13:43:29;4.77;;;3.90;;
2480;SDS011;57396;48.742;9.128;2023-05-29T13:45:54;3.97;;;3.50;;
2480;SDS011;57396;48.742;9.128;2023-05-29T13:48:20;4.10;;;3.67;;
2480;SDS011;57396;48.742;9.128;2023-05-29T13:50:46;7.83;;;3.50;;
2480;SDS011;57396;48.742;9.128;2023-05-29T13:53:11;5.00;;;3.27;;
2480;SDS011;57396;48.742;9.128;2023-05-29T13:55:37;3.83;;;3.50;;
2480;SDS011;57396;48.742;9.128;2023-05-29T13:58:02;4.80;;;3.67;;
2480;SDS011;57396;48.742;9.128;2023-05-29T14:00:28;6.23;;;3.10;;
2480;SDS011;57396;48.742;9.128;2023-05-29T14:02:53;4.27;;;3.53;;
2480;SDS011;57396;48.742;9.128;2023-05-29T14:05:19;5.30;;;3.30;;
2480;SDS011;57396;48.742;9.128;2023-05-29T14:07:44;8.40;;;3.50;;
2480;SDS011;57396;48.742;9.128;2023-05-29T14:10:10;4.23;;;3.23;;
2480;SDS011;57396;48.742;9.128;2023-05-29T14:12:35;5.43;;;3.63;;
2480;SDS011;57396;48.742;9.128;2023-05-29T14:15:01;4.53;;;3.40;;
2480;SDS011;57396;48.742;9.128;2023-05-29T14:17:26;7.03;;;3.60;;
2480;SDS011;57396;48.742;9.128;2023-05-29T14:19:52;3.80;;;3.50;;
2480;SDS011;57396;48.742;9.128;2023-05-29T14:22:17;6.20;;;3.57;;
2480;SDS011;57396;48.742;9.128;2023-05-29T14:24:43;9.70;;;3.60;;
2480;SDS011;57396;48.742;9.128;2023-05-29T14:27:08;3.70;;;3.17;;
2480;SDS011;57396;48.742;9.128;2023-05-29T14:29:34;4.50;;;3.37;;
2480;SDS011;57396;48.742;9.128;2023-05-29T14:31:59;5.70;;;3.13;;
2480;SDS011;57396;48.742;9.128;2023-05-29T14:34:24;6.20;;;3.33;;
2480;SDS011;57396;48.742;9.128;2023-05-29T14:36:50;5.03;;;3.20;;
2480;SDS011;57396;48.742;9.128;2023-05-29T14:39:15;8.93;;;3.20;;
2480;SDS011;57396;48.742;9.128;2023-05-29T14:41:41;4.57;;;3.47;;
2480;SDS011;57396;48.742;9.128;2023-05-29T14:44:06;8.90;;;3.53;;
2480;SDS011;57396;48.742;9.128;2023-05-29T14:46:32;7.10;;;3.50;;
2480;SDS011;57396;48.742;9.128;2023-05-29T14:48:58;5.20;;;3.30;;
2480;SDS011;57396;48.742;9.128;2023-05-29T14:51:24;6.30;;;3.10;;
2480;SDS011;57396;48.742;9.128;2023-05-29T14:53:49;4.50;;;3.33;;
2480;SDS011;57396;48.742;9.128;2023-05-29T14:56:15;5.83;;;3.70;;
2480;SDS011;57396;48.742;9.128;2023-05-29T14:58:43;3.50;;;3.00;;
2480;SDS011;57396;48.742;9.128;2023-05-29T15:01:08;6.70;;;3.57;;
2480;SDS011;57396;48.742;9.128;2023-05-29T15:03:34;3.83;;;3.40;;
2480;SDS011;57396;48.742;9.128;2023-05-29T15:06:00;3.63;;;3.10;;
2480;SDS011;57396;48.742;9.128;2023-05-29T15:08:26;4.30;;;3.20;;
2480;SDS011;57396;48.742;9.128;2023-05-29T15:10:53;3.90;;;3.50;;
2480;SDS011;57396;48.742;9.128;2023-05-29T15:13:18;3.77;;;3.47;;
2480;SDS011;57396;48.742;9.128;2023-05-29T15:15:44;5.93;;;4.07;;
2480;SDS011;57396;48.742;9.128;2023-05-29T15:18:10;4.40;;;3.60;;